Time;durP1;ratioP1;P1;durP2;ratioP2;P2;SDS_P1;SDS_P2;PMS_P1;PMS_P2;Temp;Humidity;BMP_temperature;BMP_pressure;BME280_temperature;BME280_humidity;BME280_pressure;Samples;Min_cycle;Max_cycle;Signal;HPM_P1;HPM_P2
2021/07/01 00:02:08;;;;;;;2.80;1.63;;;;;;;24.24;73.29;92832.25;5030853;28;20162;-86
2021/07/01 00:04:35;;;;;;;3.55;2.85;;;;;;;24.10;73.76;92819.25;5030771;28;20387;-86
2021/07/01 00:07:02;;;;;;;3.00;2.17;;;;;;;24.15;73.85;92829.63;5030793;28;20045;-86
2021/07/01 00:09:28;;;;;;;4.25;2.10;;;;;;;24.11;74.54;92824.22;5030864;28;20060;-86
2021/07/01 00:11:56;;;;;;;3.53;2.45;;;;;;;24.09;74.56;92830.84;5030823;28;20439;-85
2021/07/01 00:14:24;;;;;;;4.40;2.67;;;;;;;24.05;75.64;92827.22;5030631;28;20042;-86
2021/07/01 00:16:53;;;;;;;3.10;2.25;;;;;;;23.98;74.95;92823.19;5030587;28;20497;-85
2021/07/01 00:19:22;;;;;;;5.93;3.45;;;;;;;23.97;75.97;92820.91;5005904;28;20427;-86
2021/07/01 00:21:49;;;;;;;7.63;2.15;;;;;;;23.88;76.11;92826.88;5030512;28;20057;-86
2021/07/01 00:24:16;;;;;;;3.47;2.15;;;;;;;23.84;77.21;92830.41;5030495;28;20056;-86
2021/07/01 00:26:42;;;;;;;2.75;2.03;;;;;;;23.76;76.87;92819.56;5030613;28;20399;-85
2021/07/01 00:29:09;;;;;;;5.60;2.22;;;;;;;23.73;76.38;92824.66;5030440;28;20049;-86
2021/07/01 00:31:36;;;;;;;4.25;2.60;;;;;;;23.71;77.52;92827.59;5030759;28;20046;-86
2021/07/01 00:34:04;;;;;;;3.65;2.55;;;;;;;23.72;76.81;92833.59;5030512;28;20049;-86
2021/07/01 00:36:32;;;;;;;2.78;2.00;;;;;;;23.67;75.98;92821.41;5030525;28;20457;-86
2021/07/01 00:38:59;;;;;;;2.10;1.75;;;;;;;23.66;75.80;92825.09;5030342;28;20049;-85
2021/07/01 00:41:26;;;;;;;6.18;2.83;;;;;;;23.59;78.39;92822.09;5030326;28;20048;-86
2021/07/01 00:43:53;;;;;;;4.13;2.33;;;;;;;23.52;76.57;92819.94;5030376;28;20049;-86
2021/07/01 00:46:20;;;;;;;3.40;2.95;;;;;;;23.53;77.13;92818.84;5030593;28;20469;-86
2021/07/01 00:48:47;;;;;;;7.00;3.63;;;;;;;23.42;78.44;92804.47;5030312;28;20049;-85
2021/07/01 00:51:14;;;;;;;6.68;2.97;;;;;;;23.44;78.24;92813.56;5030389;28;20045;-85
2021/07/01 00:53:42;;;;;;;4.63;1.45;;;;;;;23.42;76.48;92820.94;5030352;28;21172;-86
2021/07/01 00:56:10;;;;;;;2.97;1.98;;;;;;;23.44;77.49;92805.72;5030470;28;20409;-85
2021/07/01 00:58:37;;;;;;;4.85;2.33;;;;;;;23.28;77.78;92797.41;5030359;28;20068;-86
2021/07/01 01:01:05;;;;;;;4.40;3.08;;;;;;;23.34;78.12;92813.81;5030285;28;20053;-85
2021/07/01 01:03:34;;;;;;;3.38;2.08;;;;;;;23.30;77.40;92804.97;5030197;28;20136;-86
2021/07/01 01:06:01;;;;;;;3.03;2.45;;;;;;;23.31;77.13;92809.94;5030308;28;20111;-86
2021/07/01 01:08:29;;;;;;;3.47;2.33;;;;;;;23.22;77.84;92804.63;5030184;28;20409;-86
2021/07/01 01:10:57;;;;;;;3.40;2.05;;;;;;;23.25;78.00;92826.84;5030196;28;20046;-86
2021/07/01 01:13:26;;;;;;;8.23;3.15;;;;;;;23.16;79.25;92826.00;5030971;28;20421;-85
2021/07/01 01:15:55;;;;;;;4.63;3.05;;;;;;;23.07;79.23;92825.94;5033938;28;20045;-85
2021/07/01 01:18:22;;;;;;;3.72;2.22;;;;;;;22.97;78.79;92819.09;5048568;28;20049;-86
2021/07/01 01:20:50;;;;;;;3.53;2.42;;;;;;;22.85;78.59;92808.38;5052761;28;20067;-86
2021/07/01 01:23:19;;;;;;;4.97;3.08;;;;;;;22.96;78.35;92825.41;5053510;28;20045;-86
2021/07/01 01:25:48;;;;;;;3.10;2.60;;;;;;;22.94;78.30;92819.66;5053617;28;20049;-86
2021/07/01 01:28:15;;;;;;;4.07;2.10;;;;;;;22.76;78.55;92801.22;5053619;28;20049;-85
2021/07/01 01:30:42;;;;;;;4.15;1.95;;;;;;;22.89;78.85;92817.94;5053616;28;20136;-86
2021/07/01 01:33:10;;;;;;;4.00;2.33;;;;;;;22.89;78.72;92827.66;5053432;28;20471;-86
2021/07/01 01:35:37;;;;;;;7.55;2.78;;;;;;;22.84;79.08;92828.53;5053290;28;20049;-86
2021/07/01 01:38:07;;;;;;;3.17;2.17;;;;;;;22.64;79.06;92806.19;5053299;28;20055;-86
2021/07/01 01:40:36;;;;;;;5.03;2.50;;;;;;;22.77;79.43;92834.19;5053178;28;20546;-86
2021/07/01 01:43:02;;;;;;;3.63;2.38;;;;;;;22.77;79.54;92822.94;5053181;28;20090;-86
2021/07/01 01:45:29;;;;;;;4.32;2.50;;;;;;;22.66;79.60;92815.31;5053312;28;20053;-86
2021/07/01 01:47:56;;;;;;;4.47;2.40;;;;;;;22.67;80.36;92816.84;5053181;28;20106;-86
2021/07/01 01:50:24;;;;;;;5.18;2.65;;;;;;;22.61;80.80;92818.03;5053289;28;20041;-86
2021/07/01 01:52:51;;;;;;;3.67;2.70;;;;;;;22.60;80.32;92826.19;5053125;28;20555;-86
2021/07/01 01:55:18;;;;;;;3.35;2.05;;;;;;;22.54;81.34;92820.28;5053120;28;20130;-86
2021/07/01 01:57:48;;;;;;;4.97;2.80;;;;;;;22.49;81.06;92821.13;5053000;28;20436;-85
2021/07/01 02:00:17;;;;;;;3.75;2.45;;;;;;;22.42;81.64;92821.53;5052774;28;20425;-86
2021/07/01 02:02:44;;;;;;;3.45;2.28;;;;;;;22.45;81.85;92832.47;5052624;28;20053;-85
2021/07/01 02:05:12;;;;;;;5.70;2.40;;;;;;;22.39;82.61;92829.97;5053140;28;20570;-86
2021/07/01 02:07:39;;;;;;;5.00;2.83;;;;;;;22.33;82.50;92830.34;5052825;28;20060;-85
2021/07/01 02:10:08;;;;;;;4.95;3.33;;;;;;;22.24;82.90;92819.78;5052871;28;20045;-86
2021/07/01 02:12:35;;;;;;;3.40;1.77;;;;;;;22.21;83.37;92831.63;5052804;28;20051;-86
2021/07/01 02:15:06;;;;;;;4.40;2.22;;;;;;;22.14;83.48;92824.16;5052522;28;20045;-85
2021/07/01 02:17:34;;;;;;;6.72;2.80;;;;;;;21.97;83.10;92809.06;5052811;28;20106;-86
2021/07/01 02:20:01;;;;;;;4.00;2.78;;;;;;;22.12;83.60;92836.00;5052648;28;20060;-86
2021/07/01 02:22:28;;;;;;;11.18;2.70;;;;;;;22.08;83.96;92841.00;5052657;28;20073;-86
2021/07/01 02:24:55;;;;;;;7.75;2.75;;;;;;;21.87;83.98;92810.03;5052541;28;20049;-87
2021/07/01 02:27:22;;;;;;;3.38;1.92;;;;;;;22.01;84.05;92832.78;5052326;28;20060;-86
2021/07/01 02:29:49;;;;;;;5.20;2.10;;;;;;;21.98;84.25;92843.84;5052282;28;20045;-86
2021/07/01 02:32:17;;;;;;;5.40;1.92;;;;;;;21.91;84.40;92843.44;5052293;28;20493;-86
2021/07/01 02:34:44;;;;;;;4.07;1.73;;;;;;;21.95;83.96;92852.25;5052398;28;20056;-86
2021/07/01 02:37:12;;;;;;;2.50;1.92;;;;;;;21.87;84.40;92840.63;5052293;28;20052;-86
2021/07/01 02:39:39;;;;;;;6.40;2.72;;;;;;;21.85;85.06;92838.28;5052045;28;20404;-86
2021/07/01 02:42:07;;;;;;;3.60;2.75;;;;;;;21.85;85.19;92848.75;5052179;28;20138;-86
2021/07/01 02:44:35;;;;;;;2.97;2.42;;;;;;;21.72;85.76;92844.28;5052097;28;20056;-86
2021/07/01 02:47:02;;;;;;;4.63;2.85;;;;;;;21.69;86.33;92848.22;5052280;28;20049;-85
2021/07/01 02:49:31;;;;;;;5.05;2.90;;;;;;;21.67;86.14;92857.41;5052148;28;20067;-85
2021/07/01 02:51:57;;;;;;;3.95;1.80;;;;;;;21.61;85.98;92854.09;5052034;28;20045;-85
2021/07/01 02:54:24;;;;;;;3.22;2.00;;;;;;;21.61;85.57;92854.09;5051874;28;20045;-86
2021/07/01 02:56:51;;;;;;;4.10;2.83;;;;;;;21.66;85.18;92853.25;5051804;28;20501;-86
2021/07/01 02:59:19;;;;;;;4.85;3.10;;;;;;;21.63;84.77;92860.59;5051951;28;20449;-86
2021/07/01 03:01:47;;;;;;;3.42;2.55;;;;;;;21.67;84.85;92857.41;5051768;28;20041;-85
2021/07/01 03:04:14;;;;;;;4.03;2.20;;;;;;;21.58;85.19;92845.00;5051786;28;20045;-86
2021/07/01 03:06:43;;;;;;;6.05;2.78;;;;;;;21.62;85.73;92864.28;5051660;28;20107;-85
2021/07/01 03:09:11;;;;;;;3.42;1.88;;;;;;;21.58;86.19;92873.75;5051652;28;20044;-85
2021/07/01 03:11:39;;;;;;;10.05;2.53;;;;;;;21.57;85.93;92872.19;5051616;28;20056;-85
2021/07/01 03:14:06;;;;;;;2.67;1.77;;;;;;;21.54;86.72;92872.00;5051917;28;20053;-84
2021/07/01 03:16:33;;;;;;;8.90;2.88;;;;;;;21.51;85.83;92877.81;5051582;28;20489;-86
2021/07/01 03:19:01;;;;;;;4.85;2.38;;;;;;;21.53;86.54;92873.84;5051598;28;20049;-86
2021/07/01 03:21:27;;;;;;;3.53;2.20;;;;;;;21.50;86.77;92879.63;5051330;28;20075;-86
2021/07/01 03:23:56;;;;;;;4.15;3.10;;;;;;;21.51;85.93;92870.72;5051260;28;20401;-86
2021/07/01 03:26:23;;;;;;;3.53;2.38;;;;;;;21.53;85.93;92873.84;5050986;28;20053;-86
2021/07/01 03:28:49;;;;;;;2.78;2.50;;;;;;;21.52;85.49;92861.06;5051356;28;20041;-86
2021/07/01 03:31:16;;;;;;;8.50;4.07;;;;;;;21.58;85.51;92871.13;5051199;28;20053;-86
2021/07/01 03:33:43;;;;;;;4.70;3.05;;;;;;;21.60;84.98;92871.63;5051118;28;20049;-86
2021/07/01 03:36:11;;;;;;;3.25;2.95;;;;;;;21.66;85.06;92869.69;5050685;28;20056;-86
2021/07/01 03:38:38;;;;;;;3.65;3.00;;;;;;;21.71;85.67;92876.72;5050940;28;20650;-86
2021/07/01 03:41:07;;;;;;;7.45;2.75;;;;;;;21.72;85.79;92876.41;5051259;28;20067;-86
2021/07/01 03:43:38;;;;;;;9.05;3.78;;;;;;;21.64;84.94;92871.84;5051222;28;20095;-87
2021/07/01 03:46:05;;;;;;;3.03;1.95;;;;;;;21.70;85.78;92873.31;5050960;28;20124;-85
2021/07/01 03:48:32;;;;;;;4.45;2.55;;;;;;;21.68;87.07;92872.81;5050975;28;20049;-86
2021/07/01 03:50:58;;;;;;;7.55;2.85;;;;;;;21.53;88.40;92871.25;5050801;28;20053;-85
2021/07/01 03:53:25;;;;;;;4.63;3.15;;;;;;;21.55;88.89;92863.09;5051081;28;20052;-86
2021/07/01 03:55:52;;;;;;;3.40;2.80;;;;;;;21.51;89.41;92862.13;5050800;28;20045;-85
2021/07/01 03:58:20;;;;;;;8.27;3.47;;;;;;;21.62;88.22;92866.13;5051083;28;20049;-85
2021/07/01 04:00:47;;;;;;;5.30;2.78;;;;;;;21.64;87.23;92864.00;5050871;28;20049;-86
2021/07/01 04:03:14;;;;;;;4.57;3.15;;;;;;;21.76;87.42;92868.81;5050887;28;20456;-86
2021/07/01 04:05:40;;;;;;;15.13;3.40;;;;;;;21.80;87.16;92869.75;5050635;28;20060;-86
2021/07/01 04:08:07;;;;;;;3.95;2.28;;;;;;;21.94;85.71;92866.41;5050908;28;20052;-86
2021/07/01 04:10:34;;;;;;;4.88;3.13;;;;;;;22.02;85.75;92861.28;5050568;28;20057;-86
2021/07/01 04:13:01;;;;;;;6.25;4.18;;;;;;;22.15;85.90;92864.19;5050787;28;20049;-86
2021/07/01 04:15:29;;;;;;;5.93;4.22;;;;;;;22.23;85.14;92862.72;5050615;28;20060;-85
2021/07/01 04:17:56;;;;;;;7.57;2.78;;;;;;;22.32;85.23;92863.59;5050512;28;20610;-86
2021/07/01 04:20:23;;;;;;;7.60;3.45;;;;;;;22.38;84.08;92866.88;5050452;28;20060;-86
2021/07/01 04:22:50;;;;;;;4.80;3.03;;;;;;;22.38;84.08;92849.34;5050643;28;20056;-86
2021/07/01 04:25:17;;;;;;;6.20;4.05;;;;;;;22.63;83.05;92863.00;5050448;28;20095;-87
2021/07/01 04:27:44;;;;;;;7.35;3.90;;;;;;;22.74;82.57;92868.81;5050424;28;20063;-86
2021/07/01 04:30:12;;;;;;;9.82;3.90;;;;;;;22.80;82.04;92867.63;5050462;28;20045;-86
2021/07/01 04:32:40;;;;;;;4.22;2.75;;;;;;;22.86;80.64;92868.28;5050304;28;20071;-87
2021/07/01 04:35:07;;;;;;;4.13;2.75;;;;;;;22.91;80.61;92870.78;5050451;28;20056;-86
2021/07/01 04:37:34;;;;;;;7.50;2.85;;;;;;;22.95;81.49;92861.28;5050381;28;20060;-86
2021/07/01 04:40:01;;;;;;;10.55;3.00;;;;;;;23.07;80.38;92873.88;5050223;28;20550;-86
2021/07/01 04:42:28;;;;;;;8.13;2.90;;;;;;;23.12;80.25;92864.31;5050427;28;20488;-86
2021/07/01 04:44:55;;;;;;;8.60;3.72;;;;;;;23.09;80.14;92863.06;5050472;28;20409;-86
2021/07/01 04:47:21;;;;;;;7.47;3.25;;;;;;;23.16;79.87;92870.53;5050167;28;20049;-86
2021/07/01 04:49:49;;;;;;;3.90;2.63;;;;;;;23.16;79.11;92870.53;5053547;28;20106;-86
2021/07/01 04:52:16;;;;;;;5.38;3.80;;;;;;;23.22;78.78;92867.50;5054318;28;20053;-86
2021/07/01 04:54:43;;;;;;;6.25;2.97;;;;;;;23.34;78.74;92882.72;5054167;28;20059;-86
2021/07/01 04:57:10;;;;;;;9.27;3.72;;;;;;;23.44;79.35;92883.56;5054208;28;20049;-86
2021/07/01 04:59:36;;;;;;;9.13;2.72;;;;;;;23.55;79.51;92887.47;5053938;28;20048;-86
2021/07/01 05:02:04;;;;;;;6.70;3.40;;;;;;;23.61;79.61;92888.16;5053858;28;20098;-86
2021/07/01 05:04:30;;;;;;;5.53;2.42;;;;;;;23.67;79.48;92894.81;5053975;28;20408;-86
2021/07/01 05:06:58;;;;;;;3.45;2.58;;;;;;;23.60;80.60;92861.13;5054017;28;20512;-85
2021/07/01 05:09:25;;;;;;;3.88;2.20;;;;;;;23.83;79.44;92887.31;5053860;28;20053;-86
2021/07/01 05:11:52;;;;;;;4.88;2.90;;;;;;;23.88;76.95;92884.56;5053901;28;20082;-86
2021/07/01 05:14:19;;;;;;;6.22;2.35;;;;;;;23.92;76.35;92884.75;5053683;28;20049;-86
2021/07/01 05:16:47;;;;;;;5.97;3.85;;;;;;;24.03;76.63;92880.78;5054064;28;20045;-86
2021/07/01 05:19:14;;;;;;;7.25;3.55;;;;;;;24.11;76.02;92870.69;5053942;28;20045;-86
2021/07/01 05:21:40;;;;;;;4.45;3.28;;;;;;;24.10;74.51;92862.03;5053858;28;20114;-86
2021/07/01 05:24:09;;;;;;;6.75;2.67;;;;;;;24.28;76.54;92873.34;5053863;28;20045;-85
2021/07/01 05:26:35;;;;;;;4.35;2.67;;;;;;;24.23;77.89;92864.84;5053796;28;20064;-85
2021/07/01 05:29:02;;;;;;;5.38;3.33;;;;;;;24.47;75.90;92866.28;5053445;28;20095;-85
2021/07/01 05:31:29;;;;;;;4.25;2.03;;;;;;;24.54;75.92;92866.63;5053656;28;20175;-86
2021/07/01 05:33:57;;;;;;;10.48;3.05;;;;;;;24.63;75.19;92861.41;5053452;28;20493;-86
2021/07/01 05:36:24;;;;;;;7.47;4.07;;;;;;;24.69;75.14;92858.31;5053750;28;20053;-86
2021/07/01 05:38:50;;;;;;;7.35;2.92;;;;;;;24.69;74.79;92836.53;5053402;28;20045;-86
2021/07/01 05:41:19;;;;;;;5.57;3.63;;;;;;;24.91;75.87;92859.28;5053241;28;20052;-86
2021/07/01 05:43:46;;;;;;;5.75;3.42;;;;;;;24.98;75.86;92864.06;5053206;28;20048;-86
2021/07/01 05:46:12;;;;;;;9.40;2.63;;;;;;;25.19;76.17;92851.06;5053471;28;20049;-84
2021/07/01 05:48:41;;;;;;;6.30;3.22;;;;;;;25.21;74.70;92851.56;5053185;28;20056;-86
2021/07/01 05:51:09;;;;;;;5.65;2.97;;;;;;;25.20;73.94;92838.72;5053525;28;20071;-86
2021/07/01 05:53:41;;;;;;;3.85;2.42;;;;;;;25.21;72.03;92824.50;5053035;28;20045;-85
2021/07/01 05:56:08;;;;;;;4.22;2.20;;;;;;;25.68;69.47;92857.25;5052959;28;20088;-86
2021/07/01 05:58:36;;;;;;;7.15;3.28;;;;;;;25.86;71.80;92848.22;5048827;28;20099;-84
2021/07/01 06:01:03;;;;;;;3.03;2.17;;;;;;;26.21;71.19;92857.06;5052613;28;20114;-85
2021/07/01 06:03:32;;;;;;;4.20;3.33;;;;;;;26.36;68.54;92853.91;5052932;28;20493;-85
2021/07/01 06:06:03;;;;;;;3.00;2.65;;;;;;;26.27;68.66;92842.66;5052804;28;20087;-84
2021/07/01 06:08:31;;;;;;;9.18;2.75;;;;;;;26.50;66.16;92843.16;5052737;28;20064;-86
2021/07/01 06:11:02;;;;;;;4.22;3.47;;;;;;;26.28;66.19;92850.25;5053055;28;20394;-86
2021/07/01 06:13:30;;;;;;;3.90;2.78;;;;;;;26.68;65.98;92851.72;5052628;28;20052;-84
2021/07/01 06:15:58;;;;;;;3.72;2.75;;;;;;;26.88;63.43;92854.69;5052796;28;20508;-85
2021/07/01 06:18:25;;;;;;;7.18;3.45;;;;;;;27.37;62.60;92852.63;5052750;28;20049;-85
2021/07/01 06:20:52;;;;;;;9.55;3.80;;;;;;;27.52;62.31;92846.72;5052474;28;20060;-86
2021/07/01 06:23:19;;;;;;;8.43;5.45;;;;;;;27.83;61.14;92856.06;5052537;28;20071;-84
2021/07/01 06:25:48;;;;;;;11.20;5.88;;;;;;;28.11;61.68;92846.75;5052340;28;20041;-85
2021/07/01 06:28:15;;;;;;;10.90;5.25;;;;;;;28.46;59.29;92853.50;5052512;28;20052;-84
2021/07/01 06:30:44;;;;;;;9.00;5.63;;;;;;;28.77;59.03;92852.91;5052380;28;20053;-84
2021/07/01 06:33:13;;;;;;;9.27;6.30;;;;;;;28.92;57.40;92843.53;5049001;28;20074;-85
2021/07/01 06:35:47;;;;;;;13.82;6.55;;;;;;;28.77;57.95;92828.34;5032480;28;20160;-84
2021/07/01 06:38:16;;;;;;;17.10;6.40;;;;;;;28.74;57.38;92836.94;5032453;28;20053;-84
2021/07/01 06:40:47;;;;;;;14.70;6.70;;;;;;;29.25;56.85;92847.03;5032299;28;20052;-84
2021/07/01 06:43:14;;;;;;;10.95;6.03;;;;;;;29.27;53.63;92839.56;5032281;28;20494;-86
2021/07/01 06:45:43;;;;;;;9.35;5.35;;;;;;;29.61;54.02;92839.31;5032514;28;20103;-85
2021/07/01 06:48:14;;;;;;;7.35;4.07;;;;;;;29.95;51.68;92846.94;5032013;28;20053;-84
2021/07/01 06:50:41;;;;;;;9.95;4.03;;;;;;;30.17;50.83;92847.50;5032255;28;20049;-83
2021/07/01 06:53:08;;;;;;;7.80;4.25;;;;;;;30.31;49.76;92837.22;5032256;28;20053;-85
2021/07/01 06:55:35;;;;;;;10.68;3.75;;;;;;;30.72;48.39;92838.88;5031992;28;20045;-85
2021/07/01 06:58:02;;;;;;;6.95;3.92;;;;;;;30.75;47.93;92841.59;5032000;28;20092;-85
2021/07/01 07:00:29;;;;;;;8.60;4.40;;;;;;;31.23;47.83;92839.88;5031933;28;20050;-85
2021/07/01 07:02:57;;;;;;;4.45;2.63;;;;;;;31.30;45.09;92835.53;5031946;28;20073;-84
2021/07/01 07:05:26;;;;;;;8.65;3.47;;;;;;;31.19;42.19;92829.97;5031782;28;20509;-85
2021/07/01 07:07:54;;;;;;;5.30;2.63;;;;;;;31.65;40.88;92841.06;5031908;28;20049;-85
2021/07/01 07:10:22;;;;;;;6.50;2.75;;;;;;;31.42;38.94;92823.22;5031635;28;20065;-85
2021/07/01 07:12:53;;;;;;;11.35;3.35;;;;;;;31.30;38.94;92834.75;5031124;28;20053;-85
2021/07/01 07:15:26;;;;;;;7.35;3.25;;;;;;;31.23;38.67;92827.38;5031646;28;20061;-86
2021/07/01 07:17:55;;;;;;;6.22;3.60;;;;;;;31.63;40.92;92814.06;5031788;28;20053;-84
2021/07/01 07:20:23;;;;;;;7.55;2.40;;;;;;;32.09;39.85;92816.78;5031632;28;20054;-85
2021/07/01 07:22:55;;;;;;;8.20;2.35;;;;;;;32.32;36.37;92821.28;5031544;28;20140;-85
2021/07/01 07:25:22;;;;;;;4.68;2.03;;;;;;;32.61;35.20;92819.03;5031524;28;20049;-84
2021/07/01 07:27:56;;;;;;;8.98;1.83;;;;;;;32.27;31.85;92832.22;5031675;28;20057;-83
2021/07/01 07:30:27;;;;;;;6.38;1.52;;;;;;;32.21;28.46;92818.44;5031388;28;20501;-85
2021/07/01 07:32:56;;;;;;;6.00;2.17;;;;;;;31.66;31.75;92832.72;5031368;28;20132;-86
2021/07/01 07:35:23;;;;;;;3.75;1.70;;;;;;;31.38;31.95;92825.78;5031417;28;20049;-85
2021/07/01 07:37:51;;;;;;;3.42;2.25;;;;;;;31.63;32.22;92817.50;5045036;28;20107;-86
2021/07/01 07:40:18;;;;;;;5.05;2.03;;;;;;;31.65;34.79;92822.47;5051124;28;20078;-86
2021/07/01 07:42:45;;;;;;;10.07;2.63;;;;;;;31.98;32.21;92813.94;5051228;28;20099;-85
2021/07/01 07:45:14;;;;;;;2.83;1.45;;;;;;;31.81;33.51;92815.16;5051055;28;20440;-86
2021/07/01 07:47:41;;;;;;;4.53;2.33;;;;;;;31.92;33.76;92814.59;5050897;28;20485;-86
2021/07/01 07:50:10;;;;;;;8.45;1.45;;;;;;;32.18;32.07;92813.88;5050912;28;20107;-85
2021/07/01 07:52:49;;;;;;;4.32;1.55;;;;;;;32.44;33.83;92811.59;5051271;28;20055;-85
2021/07/01 07:55:21;;;;;;;9.10;0.90;;;;;;;32.87;31.04;92809.50;5050836;28;20051;-85
2021/07/01 07:57:53;;;;;;;11.57;1.88;;;;;;;32.82;31.37;92809.03;5051042;28;20103;-85
2021/07/01 08:00:21;;;;;;;4.97;1.98;;;;;;;32.55;31.38;92809.84;5050931;28;20107;-85
2021/07/01 08:02:51;;;;;;;3.95;1.60;;;;;;;32.58;31.76;92800.38;5050862;28;20409;-84
2021/07/01 08:05:22;;;;;;;2.47;1.08;;;;;;;33.28;31.30;92794.75;5050610;28;20056;-85
2021/07/01 08:07:50;;;;;;;5.03;2.75;;;;;;;33.44;29.96;92797.97;5050662;28;20052;-85
2021/07/01 08:10:21;;;;;;;3.78;1.30;;;;;;;33.90;28.87;92792.69;5050717;28;20041;-84
2021/07/01 08:12:51;;;;;;;2.65;1.02;;;;;;;34.30;27.75;92796.44;5050859;28;20052;-83
2021/07/01 08:15:20;;;;;;;3.55;1.98;;;;;;;34.12;27.13;92796.31;5050825;28;20079;-85
2021/07/01 08:17:49;;;;;;;3.70;1.30;;;;;;;34.05;26.87;92793.59;5050531;28;20049;-86
2021/07/01 08:20:18;;;;;;;4.72;1.77;;;;;;;33.40;27.44;92791.84;5050523;28;20092;-84
2021/07/01 08:22:46;;;;;;;3.13;1.35;;;;;;;33.62;27.67;92785.97;5052970;28;20071;-84
2021/07/01 08:25:14;;;;;;;2.95;1.33;;;;;;;34.06;27.16;92790.53;5057340;28;20045;-84
2021/07/01 08:27:44;;;;;;;6.20;2.60;;;;;;;33.32;25.34;92785.69;5057036;28;20102;-82
2021/07/01 08:30:13;;;;;;;8.55;2.58;;;;;;;33.00;26.44;92796.00;5056971;28;20048;-86
2021/07/01 08:32:41;;;;;;;7.38;2.05;;;;;;;33.66;26.33;92789.44;5057412;28;20106;-84
2021/07/01 08:35:12;;;;;;;1.25;0.80;;;;;;;33.80;26.01;92786.91;5057140;28;20052;-84
2021/07/01 08:37:44;;;;;;;2.67;1.45;;;;;;;33.74;24.83;92780.41;5057297;28;20097;-86
2021/07/01 08:40:14;;;;;;;18.45;2.85;;;;;;;34.10;27.38;92778.03;5057108;28;20072;-85
2021/07/01 08:42:42;;;;;;;4.18;0.98;;;;;;;33.49;26.82;92785.47;5056880;28;20057;-83
2021/07/01 08:45:11;;;;;;;2.38;1.58;;;;;;;33.63;26.89;92780.28;5057597;28;20044;-84
2021/07/01 08:47:41;;;;;;;3.05;0.82;;;;;;;33.58;26.35;92778.75;5057215;28;20103;-84
2021/07/01 08:50:11;;;;;;;5.22;1.20;;;;;;;33.01;27.39;92782.31;5057159;28;20409;-81
2021/07/01 08:52:54;;;;;;;4.30;1.38;;;;;;;33.03;26.64;92781.94;5057104;28;20044;-85
2021/07/01 08:55:26;;;;;;;1.70;1.15;;;;;;;32.87;27.50;92780.25;5057258;28;20048;-83
2021/07/01 08:57:56;;;;;;;2.30;1.50;;;;;;;33.41;27.09;92772.06;5057210;28;20052;-84
2021/07/01 09:00:23;;;;;;;2.20;1.55;;;;;;;33.87;25.98;92777.44;5057065;28;20099;-84
2021/07/01 09:03:02;;;;;;;5.07;1.65;;;;;;;33.82;26.95;92767.88;5056797;28;20059;-83
2021/07/01 09:05:31;;;;;;;1.23;0.68;;;;;;;33.52;26.73;92777.53;5056793;28;20507;-83
2021/07/01 09:08:00;;;;;;;6.57;1.00;;;;;;;33.31;26.93;92776.16;5056949;28;20463;-82
2021/07/01 09:10:30;;;;;;;3.45;1.73;;;;;;;33.73;26.19;92768.19;5057012;28;20075;-85
2021/07/01 09:13:00;;;;;;;3.63;1.48;;;;;;;34.25;26.83;92770.13;5056974;28;20135;-87
2021/07/01 09:15:29;;;;;;;3.83;1.95;;;;;;;34.35;27.13;92755.31;5056969;28;20056;-81
2021/07/01 09:17:56;;;;;;;2.35;1.38;;;;;;;34.36;26.60;92765.63;5056789;28;20049;-85
2021/07/01 09:20:27;;;;;;;4.72;2.10;;;;;;;34.30;26.05;92758.34;5056695;28;20510;-85
2021/07/01 09:22:56;;;;;;;7.53;2.67;;;;;;;34.51;26.70;92758.47;5056720;28;20575;-84
2021/07/01 09:25:24;;;;;;;2.72;1.27;;;;;;;33.76;27.17;92754.16;5056941;28;20106;-82
2021/07/01 09:27:52;;;;;;;10.85;2.05;;;;;;;34.00;27.36;92754.69;5056760;28;20459;-85
2021/07/01 09:30:25;;;;;;;2.55;1.25;;;;;;;34.74;26.14;92746.78;5056718;28;20394;-85
2021/07/01 09:32:55;;;;;;;1.67;0.88;;;;;;;33.54;26.53;92745.19;5056611;28;20127;-84
2021/07/01 09:35:24;;;;;;;3.72;1.35;;;;;;;33.82;26.73;92741.25;5053286;28;20053;-86
2021/07/01 09:37:51;;;;;;;6.00;1.50;;;;;;;34.25;26.70;92743.47;5053469;28;20053;-85
2021/07/01 09:40:19;;;;;;;3.78;2.10;;;;;;;34.23;26.55;92748.41;5053439;28;20501;-86
2021/07/01 09:42:52;;;;;;;3.42;2.13;;;;;;;34.71;27.08;92739.50;5053351;28;20504;-85
2021/07/01 09:45:22;;;;;;;6.00;1.23;;;;;;;35.28;26.22;92734.75;5053270;28;20057;-85
2021/07/01 09:47:54;;;;;;;5.18;1.58;;;;;;;35.46;25.75;92726.75;5053508;28;20049;-85
2021/07/01 09:50:24;;;;;;;1.55;0.88;;;;;;;35.72;24.83;92716.84;5053349;28;20053;-84
2021/07/01 09:52:55;;;;;;;6.18;1.63;;;;;;;35.12;24.79;92733.19;5053306;28;20041;-85
2021/07/01 09:55:27;;;;;;;4.53;1.00;;;;;;;35.40;25.84;92731.69;5053117;28;20139;-84
2021/07/01 09:57:56;;;;;;;5.32;1.55;;;;;;;35.22;24.98;92726.34;5053075;28;20041;-86
2021/07/01 10:00:28;;;;;;;4.97;2.00;;;;;;;35.93;26.35;92726.78;5052955;28;20090;-85
2021/07/01 10:03:02;;;;;;;13.18;1.90;;;;;;;36.20;24.69;92722.94;5052921;28;20522;-86
2021/07/01 10:05:30;;;;;;;3.85;1.45;;;;;;;36.28;24.32;92724.44;5053029;28;20059;-86
2021/07/01 10:07:57;;;;;;;3.58;1.65;;;;;;;36.58;24.91;92711.75;5052882;28;20412;-90
2021/07/01 10:10:24;;;;;;;5.93;1.42;;;;;;;36.57;23.74;92708.31;5045644;28;20057;-88
2021/07/01 10:12:52;;;;;;;2.67;1.90;;;;;;;36.74;25.56;92706.00;5043028;28;20551;-85
2021/07/01 10:15:32;;;;;;;3.58;1.50;;;;;;;37.11;24.12;92701.97;5041419;28;20049;-82
2021/07/01 10:18:08;;;;;;;4.07;1.35;;;;;;;36.90;23.62;92697.50;5040319;28;20041;-86
2021/07/01 10:20:36;;;;;;;3.60;1.25;;;;;;;37.05;24.56;92692.81;5036258;28;20124;-83
2021/07/01 10:23:04;;;;;;;1.92;0.82;;;;;;;36.94;24.78;92692.88;5040624;28;20045;-85
2021/07/01 10:25:33;;;;;;;4.30;1.40;;;;;;;37.08;24.82;92694.72;5051395;28;20071;-83
2021/07/01 10:28:11;;;;;;;3.60;1.50;;;;;;;37.52;24.08;92684.47;5002887;28;20129;-84
2021/07/01 10:30:41;;;;;;;3.08;1.10;;;;;;;37.82;23.45;92680.41;5001130;28;20046;-82
2021/07/01 10:33:23;;;;;;;6.45;1.45;;;;;;;38.02;23.64;92681.75;4995607;28;20045;-84
2021/07/01 10:35:51;;;;;;;8.13;2.15;;;;;;;38.14;23.01;92673.25;5000682;28;20042;-86
2021/07/01 10:38:18;;;;;;;4.88;2.15;;;;;;;38.31;23.21;92670.78;5006619;28;20057;-83
2021/07/01 10:40:46;;;;;;;3.35;1.75;;;;;;;38.49;23.41;92659.81;5007394;28;20046;-88
2021/07/01 10:43:16;;;;;;;3.38;1.23;;;;;;;38.49;23.27;92657.91;4997802;28;20552;-85
2021/07/01 10:45:54;;;;;;;20.65;1.50;;;;;;;38.54;23.85;92662.06;4996714;28;20053;-84
2021/07/01 10:48:21;;;;;;;3.10;0.90;;;;;;;38.42;22.01;92643.81;4998647;28;20067;-88
2021/07/01 10:50:50;;;;;;;1.42;0.50;;;;;;;38.50;23.92;92648.69;5001641;28;20516;-82
2021/07/01 10:53:32;;;;;;;3.15;1.60;;;;;;;38.49;23.31;92649.06;5003671;28;20047;-82
2021/07/01 10:56:04;;;;;;;11.32;1.90;;;;;;;38.46;23.03;92652.59;5012306;28;20050;-85
2021/07/01 10:58:31;;;;;;;3.88;1.92;;;;;;;38.76;22.99;92638.41;5012583;28;20123;-83
2021/07/01 11:01:01;;;;;;;3.70;2.00;;;;;;;38.88;22.72;92639.03;5007994;28;20046;-84
2021/07/01 11:03:29;;;;;;;5.78;1.27;;;;;;;39.02;22.62;92640.78;5012439;28;20050;-84
2021/07/01 11:05:57;;;;;;;3.00;1.50;;;;;;;39.18;21.38;92631.34;5012440;28;21182;-84
2021/07/01 11:08:28;;;;;;;2.15;1.58;;;;;;;39.29;22.10;92629.97;5012449;28;20053;-83
2021/07/01 11:10:56;;;;;;;3.95;1.80;;;;;;;39.48;21.55;92613.59;5012228;28;20049;-87
2021/07/01 11:13:25;;;;;;;6.20;1.70;;;;;;;39.34;21.13;92609.19;5012181;28;20049;-86
2021/07/01 11:16:13;;;;;;;6.22;2.40;;;;;;;39.14;22.44;92602.59;5012098;28;20050;-83
2021/07/01 11:18:41;;;;;;;3.95;1.80;;;;;;;39.05;21.66;92610.41;5010350;28;20502;-83
2021/07/01 11:21:19;;;;;;;4.03;0.93;;;;;;;39.11;22.19;92594.59;5011834;28;20180;-82
2021/07/01 11:23:48;;;;;;;5.07;2.75;;;;;;;39.32;21.24;92604.22;5011421;28;20054;-84
2021/07/01 11:26:27;;;;;;;5.78;1.83;;;;;;;39.25;21.01;92607.03;5023690;28;20057;-86
2021/07/01 11:28:55;;;;;;;2.65;1.48;;;;;;;38.74;21.63;92589.72;5051439;28;20056;-83
2021/07/01 11:31:36;;;;;;;1.48;0.80;;;;;;;38.60;21.48;92604.13;5051188;28;20052;-84
2021/07/01 11:34:03;;;;;;;5.32;2.30;;;;;;;38.57;21.39;92596.13;5051449;28;20059;-82
2021/07/01 11:36:30;;;;;;;4.60;1.42;;;;;;;38.86;21.89;92584.97;5051462;28;20084;-84
2021/07/01 11:39:12;;;;;;;4.78;1.75;;;;;;;38.97;21.57;92585.56;5051448;28;20056;-84